<?xml version="1.0" encoding="UTF-8" standalone="no" ?>
<gpx xmlns="http://www.topografix.com/GPX/1/1" xmlns:xsi="http://www.w3.org/2001/XMLSchema-instance" xsi:schemaLocation="http://www.topografix.com/GPX/1/1 http://www.topografix.com/GPX/1/1/gpx.xsd" version="1.1" creator="VisuGPX - https://www.visugpx.com">
  <metadata>
    <name>Saint-Aubin-des-Ormeaux</name>
    <desc><![CDATA[Boucle à partir du parking de la grotte de Lourdes.]]></desc>
  </metadata>
  <trk>
    <name><![CDATA[14218514-Enregistrement du 03/02/2022]]></name>
    <trkseg>
      <trkpt lat="47.00316" lon="-1.02363">
        <ele>86</ele>
        <time>2022-02-04T09:08:01Z</time>
      </trkpt>
      <trkpt lat="47.00323" lon="-1.0237">
        <ele>85</ele>
        <time>2022-02-04T09:08:12Z</time>
      </trkpt>
      <trkpt lat="47.00322" lon="-1.0238">
        <ele>84</ele>
        <time>2022-02-04T09:08:22Z</time>
      </trkpt>
      <trkpt lat="47.00281" lon="-1.02433">
        <ele>89</ele>
        <time>2022-02-04T09:09:34Z</time>
      </trkpt>
      <trkpt lat="47.00252" lon="-1.02451">
        <ele>93</ele>
        <time>2022-02-04T09:10:16Z</time>
      </trkpt>
      <trkpt lat="47.0024" lon="-1.02454">
        <ele>95</ele>
        <time>2022-02-04T09:10:33Z</time>
      </trkpt>
      <trkpt lat="47.002" lon="-1.02481">
        <ele>99</ele>
        <time>2022-02-04T09:11:31Z</time>
      </trkpt>
      <trkpt lat="47.00187" lon="-1.02484">
        <ele>101</ele>
        <time>2022-02-04T09:11:49Z</time>
      </trkpt>
      <trkpt lat="47.00175" lon="-1.02496">
        <ele>102</ele>
        <time>2022-02-04T09:12:08Z</time>
      </trkpt>
      <trkpt lat="47.00134" lon="-1.02504">
        <ele>104</ele>
        <time>2022-02-04T09:13:04Z</time>
      </trkpt>
      <trkpt lat="47.00115" lon="-1.02496">
        <ele>104</ele>
        <time>2022-02-04T09:13:30Z</time>
      </trkpt>
      <trkpt lat="47.00057" lon="-1.02495">
        <ele>106</ele>
        <time>2022-02-04T09:14:47Z</time>
      </trkpt>
      <trkpt lat="47.00039" lon="-1.02503">
        <ele>106</ele>
        <time>2022-02-04T09:15:12Z</time>
      </trkpt>
      <trkpt lat="47.00017" lon="-1.02505">
        <ele>107</ele>
        <time>2022-02-04T09:15:42Z</time>
      </trkpt>
      <trkpt lat="46.9998" lon="-1.02518">
        <ele>110</ele>
        <time>2022-02-04T09:16:33Z</time>
      </trkpt>
      <trkpt lat="46.99924" lon="-1.02543">
        <ele>112</ele>
        <time>2022-02-04T09:17:51Z</time>
      </trkpt>
      <trkpt lat="46.99915" lon="-1.0255">
        <ele>112</ele>
        <time>2022-02-04T09:18:04Z</time>
      </trkpt>
      <trkpt lat="46.99896" lon="-1.0258">
        <ele>113</ele>
        <time>2022-02-04T09:18:42Z</time>
      </trkpt>
      <trkpt lat="46.99887" lon="-1.02585">
        <ele>113</ele>
        <time>2022-02-04T09:18:55Z</time>
      </trkpt>
      <trkpt lat="46.99859" lon="-1.02574">
        <ele>114</ele>
        <time>2022-02-04T09:19:33Z</time>
      </trkpt>
      <trkpt lat="46.99833" lon="-1.02581">
        <ele>114</ele>
        <time>2022-02-04T09:20:08Z</time>
      </trkpt>
      <trkpt lat="46.99812" lon="-1.02604">
        <ele>115</ele>
        <time>2022-02-04T09:20:43Z</time>
      </trkpt>
      <trkpt lat="46.99783" lon="-1.02622">
        <ele>117</ele>
        <time>2022-02-04T09:21:25Z</time>
      </trkpt>
      <trkpt lat="46.99667" lon="-1.02729">
        <ele>124</ele>
        <time>2022-02-04T09:24:28Z</time>
      </trkpt>
      <trkpt lat="46.99618" lon="-1.02755">
        <ele>126</ele>
        <time>2022-02-04T09:25:38Z</time>
      </trkpt>
      <trkpt lat="46.99602" lon="-1.0277">
        <ele>127</ele>
        <time>2022-02-04T09:26:03Z</time>
      </trkpt>
      <trkpt lat="46.99545" lon="-1.02794">
        <ele>129</ele>
        <time>2022-02-04T09:27:22Z</time>
      </trkpt>
      <trkpt lat="46.99521" lon="-1.0281">
        <ele>129</ele>
        <time>2022-02-04T09:27:58Z</time>
      </trkpt>
      <trkpt lat="46.99502" lon="-1.02912">
        <ele>130</ele>
        <time>2022-02-04T09:29:34Z</time>
      </trkpt>
      <trkpt lat="46.99493" lon="-1.03002">
        <ele>129</ele>
        <time>2022-02-04T09:30:57Z</time>
      </trkpt>
      <trkpt lat="46.99485" lon="-1.03028">
        <ele>130</ele>
        <time>2022-02-04T09:31:23Z</time>
      </trkpt>
      <trkpt lat="46.99473" lon="-1.03049">
        <ele>131</ele>
        <time>2022-02-04T09:31:47Z</time>
      </trkpt>
      <trkpt lat="46.99421" lon="-1.03113">
        <ele>132</ele>
        <time>2022-02-04T09:33:18Z</time>
      </trkpt>
      <trkpt lat="46.99317" lon="-1.03348">
        <ele>138</ele>
        <time>2022-02-04T09:37:33Z</time>
      </trkpt>
      <trkpt lat="46.99301" lon="-1.03376">
        <ele>138</ele>
        <time>2022-02-04T09:38:06Z</time>
      </trkpt>
      <trkpt lat="46.99284" lon="-1.03453">
        <ele>137</ele>
        <time>2022-02-04T09:39:20Z</time>
      </trkpt>
      <trkpt lat="46.9927" lon="-1.0362">
        <ele>136</ele>
        <time>2022-02-04T09:41:53Z</time>
      </trkpt>
      <trkpt lat="46.99242" lon="-1.03781">
        <ele>137</ele>
        <time>2022-02-04T09:44:24Z</time>
      </trkpt>
      <trkpt lat="46.99237" lon="-1.03848">
        <ele>137</ele>
        <time>2022-02-04T09:45:26Z</time>
      </trkpt>
      <trkpt lat="46.99231" lon="-1.03864">
        <ele>136</ele>
        <time>2022-02-04T09:45:42Z</time>
      </trkpt>
      <trkpt lat="46.99218" lon="-1.04029">
        <ele>134</ele>
        <time>2022-02-04T09:48:14Z</time>
      </trkpt>
      <trkpt lat="46.99222" lon="-1.0405">
        <ele>134</ele>
        <time>2022-02-04T09:48:33Z</time>
      </trkpt>
      <trkpt lat="46.99215" lon="-1.04072">
        <ele>133</ele>
        <time>2022-02-04T09:48:55Z</time>
      </trkpt>
      <trkpt lat="46.99215" lon="-1.0409">
        <ele>133</ele>
        <time>2022-02-04T09:49:12Z</time>
      </trkpt>
      <trkpt lat="46.99201" lon="-1.04114">
        <ele>132</ele>
        <time>2022-02-04T09:49:41Z</time>
      </trkpt>
      <trkpt lat="46.99204" lon="-1.04132">
        <ele>132</ele>
        <time>2022-02-04T09:49:57Z</time>
      </trkpt>
      <trkpt lat="46.99209" lon="-1.04139">
        <ele>132</ele>
        <time>2022-02-04T09:50:07Z</time>
      </trkpt>
      <trkpt lat="46.99216" lon="-1.04141">
        <ele>132</ele>
        <time>2022-02-04T09:50:16Z</time>
      </trkpt>
      <trkpt lat="46.9922" lon="-1.04149">
        <ele>132</ele>
        <time>2022-02-04T09:50:25Z</time>
      </trkpt>
      <trkpt lat="46.99223" lon="-1.04174">
        <ele>132</ele>
        <time>2022-02-04T09:50:48Z</time>
      </trkpt>
      <trkpt lat="46.99236" lon="-1.04212">
        <ele>133</ele>
        <time>2022-02-04T09:51:27Z</time>
      </trkpt>
      <trkpt lat="46.99242" lon="-1.04223">
        <ele>133</ele>
        <time>2022-02-04T09:51:40Z</time>
      </trkpt>
      <trkpt lat="46.99251" lon="-1.04226">
        <ele>133</ele>
        <time>2022-02-04T09:51:52Z</time>
      </trkpt>
      <trkpt lat="46.99251" lon="-1.04258">
        <ele>133</ele>
        <time>2022-02-04T09:52:21Z</time>
      </trkpt>
      <trkpt lat="46.99257" lon="-1.04272">
        <ele>133</ele>
        <time>2022-02-04T09:52:36Z</time>
      </trkpt>
      <trkpt lat="46.99261" lon="-1.04303">
        <ele>134</ele>
        <time>2022-02-04T09:53:05Z</time>
      </trkpt>
      <trkpt lat="46.99271" lon="-1.04325">
        <ele>134</ele>
        <time>2022-02-04T09:53:29Z</time>
      </trkpt>
      <trkpt lat="46.99261" lon="-1.04353">
        <ele>134</ele>
        <time>2022-02-04T09:53:58Z</time>
      </trkpt>
      <trkpt lat="46.99233" lon="-1.04379">
        <ele>133</ele>
        <time>2022-02-04T09:54:42Z</time>
      </trkpt>
      <trkpt lat="46.99223" lon="-1.04379">
        <ele>133</ele>
        <time>2022-02-04T09:54:55Z</time>
      </trkpt>
      <trkpt lat="46.99215" lon="-1.04387">
        <ele>133</ele>
        <time>2022-02-04T09:55:08Z</time>
      </trkpt>
      <trkpt lat="46.99212" lon="-1.04413">
        <ele>133</ele>
        <time>2022-02-04T09:55:32Z</time>
      </trkpt>
      <trkpt lat="46.992" lon="-1.04425">
        <ele>134</ele>
        <time>2022-02-04T09:55:52Z</time>
      </trkpt>
      <trkpt lat="46.99198" lon="-1.0445">
        <ele>133</ele>
        <time>2022-02-04T09:56:15Z</time>
      </trkpt>
      <trkpt lat="46.99192" lon="-1.04452">
        <ele>134</ele>
        <time>2022-02-04T09:56:23Z</time>
      </trkpt>
      <trkpt lat="46.99176" lon="-1.04478">
        <ele>134</ele>
        <time>2022-02-04T09:56:55Z</time>
      </trkpt>
      <trkpt lat="46.99169" lon="-1.04503">
        <ele>134</ele>
        <time>2022-02-04T09:57:19Z</time>
      </trkpt>
      <trkpt lat="46.99173" lon="-1.04519">
        <ele>134</ele>
        <time>2022-02-04T09:57:35Z</time>
      </trkpt>
      <trkpt lat="46.9917" lon="-1.04553">
        <ele>135</ele>
        <time>2022-02-04T09:58:06Z</time>
      </trkpt>
      <trkpt lat="46.99162" lon="-1.04583">
        <ele>135</ele>
        <time>2022-02-04T09:58:35Z</time>
      </trkpt>
      <trkpt lat="46.99162" lon="-1.04644">
        <ele>134</ele>
        <time>2022-02-04T09:59:31Z</time>
      </trkpt>
      <trkpt lat="46.99171" lon="-1.04673">
        <ele>134</ele>
        <time>2022-02-04T10:00:00Z</time>
      </trkpt>
      <trkpt lat="46.99179" lon="-1.04732">
        <ele>131</ele>
        <time>2022-02-04T10:00:55Z</time>
      </trkpt>
      <trkpt lat="46.99192" lon="-1.04771">
        <ele>128</ele>
        <time>2022-02-04T10:01:34Z</time>
      </trkpt>
      <trkpt lat="46.99192" lon="-1.04812">
        <ele>126</ele>
        <time>2022-02-04T10:02:12Z</time>
      </trkpt>
      <trkpt lat="46.99201" lon="-1.04893">
        <ele>122</ele>
        <time>2022-02-04T10:03:26Z</time>
      </trkpt>
      <trkpt lat="46.99206" lon="-1.04908">
        <ele>121</ele>
        <time>2022-02-04T10:03:41Z</time>
      </trkpt>
      <trkpt lat="46.99255" lon="-1.04885">
        <ele>121</ele>
        <time>2022-02-04T10:04:50Z</time>
      </trkpt>
      <trkpt lat="46.9926" lon="-1.04888">
        <ele>121</ele>
        <time>2022-02-04T10:04:57Z</time>
      </trkpt>
      <trkpt lat="46.99273" lon="-1.04882">
        <ele>122</ele>
        <time>2022-02-04T10:05:15Z</time>
      </trkpt>
      <trkpt lat="46.99292" lon="-1.0488">
        <ele>122</ele>
        <time>2022-02-04T10:05:41Z</time>
      </trkpt>
      <trkpt lat="46.99336" lon="-1.04855">
        <ele>123</ele>
        <time>2022-02-04T10:06:44Z</time>
      </trkpt>
      <trkpt lat="46.9935" lon="-1.04857">
        <ele>123</ele>
        <time>2022-02-04T10:07:03Z</time>
      </trkpt>
      <trkpt lat="46.99371" lon="-1.04853">
        <ele>124</ele>
        <time>2022-02-04T10:07:31Z</time>
      </trkpt>
      <trkpt lat="46.99409" lon="-1.04863">
        <ele>126</ele>
        <time>2022-02-04T10:08:22Z</time>
      </trkpt>
      <trkpt lat="46.99423" lon="-1.04861">
        <ele>126</ele>
        <time>2022-02-04T10:08:41Z</time>
      </trkpt>
      <trkpt lat="46.99448" lon="-1.04865">
        <ele>125</ele>
        <time>2022-02-04T10:09:15Z</time>
      </trkpt>
      <trkpt lat="46.99491" lon="-1.04882">
        <ele>124</ele>
        <time>2022-02-04T10:10:14Z</time>
      </trkpt>
      <trkpt lat="46.99495" lon="-1.04888">
        <ele>123</ele>
        <time>2022-02-04T10:10:22Z</time>
      </trkpt>
      <trkpt lat="46.99511" lon="-1.04886">
        <ele>124</ele>
        <time>2022-02-04T10:10:43Z</time>
      </trkpt>
      <trkpt lat="46.9953" lon="-1.04892">
        <ele>124</ele>
        <time>2022-02-04T10:11:09Z</time>
      </trkpt>
      <trkpt lat="46.99566" lon="-1.04918">
        <ele>123</ele>
        <time>2022-02-04T10:12:03Z</time>
      </trkpt>
      <trkpt lat="46.99583" lon="-1.04915">
        <ele>124</ele>
        <time>2022-02-04T10:12:26Z</time>
      </trkpt>
      <trkpt lat="46.99659" lon="-1.04921">
        <ele>122</ele>
        <time>2022-02-04T10:14:07Z</time>
      </trkpt>
      <trkpt lat="46.99715" lon="-1.04918">
        <ele>121</ele>
        <time>2022-02-04T10:15:22Z</time>
      </trkpt>
      <trkpt lat="46.99728" lon="-1.04926">
        <ele>120</ele>
        <time>2022-02-04T10:15:41Z</time>
      </trkpt>
      <trkpt lat="46.9975" lon="-1.04953">
        <ele>120</ele>
        <time>2022-02-04T10:16:19Z</time>
      </trkpt>
      <trkpt lat="46.99756" lon="-1.0495">
        <ele>120</ele>
        <time>2022-02-04T10:16:27Z</time>
      </trkpt>
      <trkpt lat="46.99763" lon="-1.04935">
        <ele>120</ele>
        <time>2022-02-04T10:16:44Z</time>
      </trkpt>
      <trkpt lat="46.99768" lon="-1.04905">
        <ele>120</ele>
        <time>2022-02-04T10:17:12Z</time>
      </trkpt>
      <trkpt lat="46.99772" lon="-1.04801">
        <ele>124</ele>
        <time>2022-02-04T10:18:47Z</time>
      </trkpt>
      <trkpt lat="46.99764" lon="-1.04776">
        <ele>126</ele>
        <time>2022-02-04T10:19:12Z</time>
      </trkpt>
      <trkpt lat="46.99754" lon="-1.04673">
        <ele>128</ele>
        <time>2022-02-04T10:20:47Z</time>
      </trkpt>
      <trkpt lat="46.99743" lon="-1.04647">
        <ele>128</ele>
        <time>2022-02-04T10:21:15Z</time>
      </trkpt>
      <trkpt lat="46.99729" lon="-1.04574">
        <ele>129</ele>
        <time>2022-02-04T10:22:24Z</time>
      </trkpt>
      <trkpt lat="46.99719" lon="-1.04507">
        <ele>131</ele>
        <time>2022-02-04T10:23:26Z</time>
      </trkpt>
      <trkpt lat="46.9972" lon="-1.04476">
        <ele>131</ele>
        <time>2022-02-04T10:23:54Z</time>
      </trkpt>
      <trkpt lat="46.99709" lon="-1.04431">
        <ele>131</ele>
        <time>2022-02-04T10:24:38Z</time>
      </trkpt>
      <trkpt lat="46.99706" lon="-1.04401">
        <ele>131</ele>
        <time>2022-02-04T10:25:05Z</time>
      </trkpt>
      <trkpt lat="46.99741" lon="-1.04415">
        <ele>131</ele>
        <time>2022-02-04T10:25:54Z</time>
      </trkpt>
      <trkpt lat="46.99776" lon="-1.04396">
        <ele>131</ele>
        <time>2022-02-04T10:26:44Z</time>
      </trkpt>
      <trkpt lat="46.99809" lon="-1.0439">
        <ele>131</ele>
        <time>2022-02-04T10:27:28Z</time>
      </trkpt>
      <trkpt lat="46.99825" lon="-1.04383">
        <ele>131</ele>
        <time>2022-02-04T10:27:50Z</time>
      </trkpt>
      <trkpt lat="46.99871" lon="-1.04381">
        <ele>131</ele>
        <time>2022-02-04T10:28:52Z</time>
      </trkpt>
      <trkpt lat="46.9994" lon="-1.04368">
        <ele>131</ele>
        <time>2022-02-04T10:30:25Z</time>
      </trkpt>
      <trkpt lat="46.99986" lon="-1.04372">
        <ele>130</ele>
        <time>2022-02-04T10:31:26Z</time>
      </trkpt>
      <trkpt lat="47.00009" lon="-1.04365">
        <ele>129</ele>
        <time>2022-02-04T10:31:57Z</time>
      </trkpt>
      <trkpt lat="47.00032" lon="-1.04334">
        <ele>128</ele>
        <time>2022-02-04T10:32:39Z</time>
      </trkpt>
      <trkpt lat="47.00035" lon="-1.04312">
        <ele>128</ele>
        <time>2022-02-04T10:32:59Z</time>
      </trkpt>
      <trkpt lat="47.00029" lon="-1.04243">
        <ele>128</ele>
        <time>2022-02-04T10:34:03Z</time>
      </trkpt>
      <trkpt lat="47.0002" lon="-1.04201">
        <ele>128</ele>
        <time>2022-02-04T10:34:43Z</time>
      </trkpt>
      <trkpt lat="47.00013" lon="-1.04186">
        <ele>128</ele>
        <time>2022-02-04T10:34:59Z</time>
      </trkpt>
      <trkpt lat="47.00014" lon="-1.04157">
        <ele>127</ele>
        <time>2022-02-04T10:35:26Z</time>
      </trkpt>
      <trkpt lat="47.0001" lon="-1.04141">
        <ele>128</ele>
        <time>2022-02-04T10:35:41Z</time>
      </trkpt>
      <trkpt lat="47.00013" lon="-1.04103">
        <ele>128</ele>
        <time>2022-02-04T10:36:16Z</time>
      </trkpt>
      <trkpt lat="47.00017" lon="-1.04085">
        <ele>128</ele>
        <time>2022-02-04T10:36:33Z</time>
      </trkpt>
      <trkpt lat="47.00024" lon="-1.04075">
        <ele>127</ele>
        <time>2022-02-04T10:36:46Z</time>
      </trkpt>
      <trkpt lat="47.00044" lon="-1.04064">
        <ele>127</ele>
        <time>2022-02-04T10:37:15Z</time>
      </trkpt>
      <trkpt lat="47.001" lon="-1.04051">
        <ele>125</ele>
        <time>2022-02-04T10:38:31Z</time>
      </trkpt>
      <trkpt lat="47.00122" lon="-1.04038">
        <ele>123</ele>
        <time>2022-02-04T10:39:02Z</time>
      </trkpt>
      <trkpt lat="47.00157" lon="-1.04025">
        <ele>121</ele>
        <time>2022-02-04T10:39:50Z</time>
      </trkpt>
      <trkpt lat="47.00182" lon="-1.03997">
        <ele>119</ele>
        <time>2022-02-04T10:40:32Z</time>
      </trkpt>
      <trkpt lat="47.00212" lon="-1.03924">
        <ele>110</ele>
        <time>2022-02-04T10:41:50Z</time>
      </trkpt>
      <trkpt lat="47.00223" lon="-1.03914">
        <ele>108</ele>
        <time>2022-02-04T10:42:07Z</time>
      </trkpt>
      <trkpt lat="47.00281" lon="-1.03909">
        <ele>98</ele>
        <time>2022-02-04T10:43:25Z</time>
      </trkpt>
      <trkpt lat="47.00296" lon="-1.03915">
        <ele>95</ele>
        <time>2022-02-04T10:43:46Z</time>
      </trkpt>
      <trkpt lat="47.00331" lon="-1.03916">
        <ele>88</ele>
        <time>2022-02-04T10:44:32Z</time>
      </trkpt>
      <trkpt lat="47.00338" lon="-1.0391">
        <ele>87</ele>
        <time>2022-02-04T10:44:43Z</time>
      </trkpt>
      <trkpt lat="47.00361" lon="-1.03906">
        <ele>83</ele>
        <time>2022-02-04T10:45:14Z</time>
      </trkpt>
      <trkpt lat="47.00367" lon="-1.03901">
        <ele>81</ele>
        <time>2022-02-04T10:45:23Z</time>
      </trkpt>
      <trkpt lat="47.00394" lon="-1.03901">
        <ele>77</ele>
        <time>2022-02-04T10:45:59Z</time>
      </trkpt>
      <trkpt lat="47.00404" lon="-1.03894">
        <ele>75</ele>
        <time>2022-02-04T10:46:14Z</time>
      </trkpt>
      <trkpt lat="47.00407" lon="-1.03839">
        <ele>73</ele>
        <time>2022-02-04T10:47:04Z</time>
      </trkpt>
      <trkpt lat="47.0039" lon="-1.03794">
        <ele>74</ele>
        <time>2022-02-04T10:47:51Z</time>
      </trkpt>
      <trkpt lat="47.00396" lon="-1.03759">
        <ele>71</ele>
        <time>2022-02-04T10:48:24Z</time>
      </trkpt>
      <trkpt lat="47.0037" lon="-1.03726">
        <ele>73</ele>
        <time>2022-02-04T10:49:10Z</time>
      </trkpt>
      <trkpt lat="47.0036" lon="-1.03703">
        <ele>74</ele>
        <time>2022-02-04T10:49:35Z</time>
      </trkpt>
      <trkpt lat="47.00344" lon="-1.03604">
        <ele>73</ele>
        <time>2022-02-04T10:51:07Z</time>
      </trkpt>
      <trkpt lat="47.00347" lon="-1.03581">
        <ele>72</ele>
        <time>2022-02-04T10:51:28Z</time>
      </trkpt>
      <trkpt lat="47.00338" lon="-1.03514">
        <ele>69</ele>
        <time>2022-02-04T10:52:31Z</time>
      </trkpt>
      <trkpt lat="47.0034" lon="-1.0349">
        <ele>68</ele>
        <time>2022-02-04T10:52:53Z</time>
      </trkpt>
      <trkpt lat="47.0033" lon="-1.03449">
        <ele>67</ele>
        <time>2022-02-04T10:53:32Z</time>
      </trkpt>
      <trkpt lat="47.0033" lon="-1.03415">
        <ele>66</ele>
        <time>2022-02-04T10:54:03Z</time>
      </trkpt>
      <trkpt lat="47.00339" lon="-1.03397">
        <ele>66</ele>
        <time>2022-02-04T10:54:23Z</time>
      </trkpt>
      <trkpt lat="47.00342" lon="-1.0338">
        <ele>67</ele>
        <time>2022-02-04T10:54:39Z</time>
      </trkpt>
      <trkpt lat="47.00363" lon="-1.03346">
        <ele>66</ele>
        <time>2022-02-04T10:55:21Z</time>
      </trkpt>
      <trkpt lat="47.00363" lon="-1.0332">
        <ele>68</ele>
        <time>2022-02-04T10:55:45Z</time>
      </trkpt>
      <trkpt lat="47.00386" lon="-1.03276">
        <ele>65</ele>
        <time>2022-02-04T10:56:35Z</time>
      </trkpt>
      <trkpt lat="47.00389" lon="-1.03259">
        <ele>65</ele>
        <time>2022-02-04T10:56:51Z</time>
      </trkpt>
      <trkpt lat="47.00401" lon="-1.03233">
        <ele>62</ele>
        <time>2022-02-04T10:57:20Z</time>
      </trkpt>
      <trkpt lat="47.00407" lon="-1.03197">
        <ele>61</ele>
        <time>2022-02-04T10:57:54Z</time>
      </trkpt>
      <trkpt lat="47.00398" lon="-1.03114">
        <ele>65</ele>
        <time>2022-02-04T10:59:10Z</time>
      </trkpt>
      <trkpt lat="47.00403" lon="-1.0308">
        <ele>64</ele>
        <time>2022-02-04T10:59:42Z</time>
      </trkpt>
      <trkpt lat="47.00397" lon="-1.0303">
        <ele>66</ele>
        <time>2022-02-04T11:00:28Z</time>
      </trkpt>
      <trkpt lat="47.00402" lon="-1.02982">
        <ele>65</ele>
        <time>2022-02-04T11:01:12Z</time>
      </trkpt>
      <trkpt lat="47.00393" lon="-1.02951">
        <ele>67</ele>
        <time>2022-02-04T11:01:43Z</time>
      </trkpt>
      <trkpt lat="47.00397" lon="-1.02914">
        <ele>66</ele>
        <time>2022-02-04T11:02:17Z</time>
      </trkpt>
      <trkpt lat="47.00392" lon="-1.02884">
        <ele>66</ele>
        <time>2022-02-04T11:02:45Z</time>
      </trkpt>
      <trkpt lat="47.00393" lon="-1.0284">
        <ele>66</ele>
        <time>2022-02-04T11:03:25Z</time>
      </trkpt>
      <trkpt lat="47.00375" lon="-1.02775">
        <ele>71</ele>
        <time>2022-02-04T11:04:29Z</time>
      </trkpt>
      <trkpt lat="47.0038" lon="-1.02743">
        <ele>70</ele>
        <time>2022-02-04T11:04:59Z</time>
      </trkpt>
      <trkpt lat="47.00374" lon="-1.02716">
        <ele>72</ele>
        <time>2022-02-04T11:05:25Z</time>
      </trkpt>
      <trkpt lat="47.00377" lon="-1.02679">
        <ele>71</ele>
        <time>2022-02-04T11:05:59Z</time>
      </trkpt>
      <trkpt lat="47.00372" lon="-1.02608">
        <ele>74</ele>
        <time>2022-02-04T11:07:03Z</time>
      </trkpt>
      <trkpt lat="47.00379" lon="-1.02592">
        <ele>72</ele>
        <time>2022-02-04T11:07:21Z</time>
      </trkpt>
      <trkpt lat="47.00378" lon="-1.02528">
        <ele>70</ele>
        <time>2022-02-04T11:08:19Z</time>
      </trkpt>
      <trkpt lat="47.00385" lon="-1.02497">
        <ele>67</ele>
        <time>2022-02-04T11:08:49Z</time>
      </trkpt>
      <trkpt lat="47.00376" lon="-1.02455">
        <ele>70</ele>
        <time>2022-02-04T11:09:29Z</time>
      </trkpt>
      <trkpt lat="47.00377" lon="-1.02424">
        <ele>70</ele>
        <time>2022-02-04T11:09:57Z</time>
      </trkpt>
      <trkpt lat="47.0037" lon="-1.02408">
        <ele>72</ele>
        <time>2022-02-04T11:10:14Z</time>
      </trkpt>
      <trkpt lat="47.00362" lon="-1.02405">
        <ele>74</ele>
        <time>2022-02-04T11:10:25Z</time>
      </trkpt>
      <trkpt lat="47.0036" lon="-1.02399">
        <ele>75</ele>
        <time>2022-02-04T11:10:31Z</time>
      </trkpt>
      <trkpt lat="47.00363" lon="-1.02351">
        <ele>75</ele>
        <time>2022-02-04T11:11:15Z</time>
      </trkpt>
      <trkpt lat="47.00359" lon="-1.02317">
        <ele>77</ele>
        <time>2022-02-04T11:11:47Z</time>
      </trkpt>
      <trkpt lat="47.00353" lon="-1.02306">
        <ele>79</ele>
        <time>2022-02-04T11:12:00Z</time>
      </trkpt>
      <trkpt lat="47.00341" lon="-1.02297">
        <ele>83</ele>
        <time>2022-02-04T11:12:18Z</time>
      </trkpt>
      <trkpt lat="47.00316" lon="-1.02293">
        <ele>88</ele>
        <time>2022-02-04T11:12:51Z</time>
      </trkpt>
      <trkpt lat="47.00308" lon="-1.02298">
        <ele>90</ele>
        <time>2022-02-04T11:13:03Z</time>
      </trkpt>
      <trkpt lat="47.00301" lon="-1.02312">
        <ele>90</ele>
        <time>2022-02-04T11:13:18Z</time>
      </trkpt>
      <trkpt lat="47.00305" lon="-1.02335">
        <ele>89</ele>
        <time>2022-02-04T11:13:40Z</time>
      </trkpt>
      <trkpt lat="47.00302" lon="-1.02367">
        <ele>88</ele>
        <time>2022-02-04T11:14:09Z</time>
      </trkpt>
      <trkpt lat="47.00304" lon="-1.02369">
        <ele>88</ele>
        <time>2022-02-04T11:14:13Z</time>
      </trkpt>
      <trkpt lat="47.00318" lon="-1.02362">
        <ele>86</ele>
        <time>2022-02-04T11:14:32Z</time>
      </trkpt>
      <trkpt lat="47.00319" lon="-1.02358">
        <ele>86</ele>
        <time>2022-02-04T11:14:36Z</time>
      </trkpt>
    </trkseg>
  </trk>
</gpx>